sensor_id;sensor_type;location;lat;lon;timestamp;pressure;altitude;pressure_sealevel;temperature;humidity
19210;BME280;9738;51.654;14.238;2022-12-07T00:00:36;100205.16;;;2.12;100.00
19210;BME280;9738;51.654;14.238;2022-12-07T00:03:10;100200.63;;;2.14;100.00
19210;BME280;9738;51.654;14.238;2022-12-07T00:05:39;100207.25;;;2.20;100.00
19210;BME280;9738;51.654;14.238;2022-12-07T00:08:09;100198.81;;;2.15;100.00
19210;BME280;9738;51.654;14.238;2022-12-07T00:11:08;100199.66;;;2.15;100.00
19210;BME280;9738;51.654;14.238;2022-12-07T00:13:58;100197.44;;;2.22;100.00
19210;BME280;9738;51.654;14.238;2022-12-07T00:16:30;100196.31;;;2.26;100.00
19210;BME280;9738;51.654;14.238;2022-12-07T00:19:10;100191.88;;;2.27;100.00
19210;BME280;9738;51.654;14.238;2022-12-07T00:21:50;100184.38;;;2.21;100.00
19210;BME280;9738;51.654;14.238;2022-12-07T00:24:26;100180.50;;;2.26;100.00
19210;BME280;9738;51.654;14.238;2022-12-07T00:26:52;100172.47;;;2.28;100.00
19210;BME280;9738;51.654;14.238;2022-12-07T00:29:42;100169.75;;;2.29;100.00
19210;BME280;9738;51.654;14.238;2022-12-07T00:32:10;100168.91;;;2.29;100.00
19210;BME280;9738;51.654;14.238;2022-12-07T00:34:36;100164.28;;;2.32;100.00
19210;BME280;9738;51.654;14.238;2022-12-07T00:37:02;100164.28;;;2.32;100.00
19210;BME280;9738;51.654;14.238;2022-12-07T00:39:28;100158.28;;;2.30;100.00
19210;BME280;9738;51.654;14.238;2022-12-07T00:41:54;100158.03;;;2.33;100.00
19210;BME280;9738;51.654;14.238;2022-12-07T00:44:20;100159.66;;;2.36;100.00
19210;BME280;9738;51.654;14.238;2022-12-07T00:46:46;100161.53;;;2.34;100.00
19210;BME280;9738;51.654;14.238;2022-12-07T00:49:12;100164.56;;;2.28;100.00
19210;BME280;9738;51.654;14.238;2022-12-07T00:51:38;100162.78;;;2.28;100.00
19210;BME280;9738;51.654;14.238;2022-12-07T00:54:04;100159.00;;;2.20;100.00
19210;BME280;9738;51.654;14.238;2022-12-07T00:56:30;100161.63;;;2.20;100.00
19210;BME280;9738;51.654;14.238;2022-12-07T00:58:58;100162.28;;;2.23;100.00
19210;BME280;9738;51.654;14.238;2022-12-07T01:01:26;100157.94;;;2.22;100.00
19210;BME280;9738;51.654;14.238;2022-12-07T01:03:52;100165.75;;;2.24;100.00
19210;BME280;9738;51.654;14.238;2022-12-07T01:06:20;100171.53;;;2.29;100.00
19210;BME280;9738;51.654;14.238;2022-12-07T01:08:46;100176.06;;;2.27;100.00
19210;BME280;9738;51.654;14.238;2022-12-07T01:11:15;100175.97;;;2.28;100.00
19210;BME280;9738;51.654;14.238;2022-12-07T01:13:42;100181.34;;;2.27;100.00
19210;BME280;9738;51.654;14.238;2022-12-07T01:16:10;100190.94;;;2.28;100.00
19210;BME280;9738;51.654;14.238;2022-12-07T01:18:36;100177.97;;;2.25;100.00
19210;BME280;9738;51.654;14.238;2022-12-07T01:21:06;100170.91;;;2.25;100.00
19210;BME280;9738;51.654;14.238;2022-12-07T01:23:35;100177.13;;;2.24;100.00
19210;BME280;9738;51.654;14.238;2022-12-07T01:26:04;100177.97;;;2.25;100.00
19210;BME280;9738;51.654;14.238;2022-12-07T01:28:32;100174.16;;;2.29;100.00
19210;BME280;9738;51.654;14.238;2022-12-07T01:31:04;100167.75;;;2.20;100.00
19210;BME280;9738;51.654;14.238;2022-12-07T01:33:34;100166.59;;;2.11;100.00
19210;BME280;9738;51.654;14.238;2022-12-07T01:36:13;100172.03;;;2.08;100.00
19210;BME280;9738;51.654;14.238;2022-12-07T01:38:41;100162.34;;;1.96;100.00
19210;BME280;9738;51.654;14.238;2022-12-07T01:41:07;100167.19;;;1.89;100.00
19210;BME280;9738;51.654;14.238;2022-12-07T01:43:34;100170.66;;;1.90;100.00
19210;BME280;9738;51.654;14.238;2022-12-07T01:46:02;100168.13;;;1.88;100.00
19210;BME280;9738;51.654;14.238;2022-12-07T01:48:37;100172.22;;;1.80;100.00
19210;BME280;9738;51.654;14.238;2022-12-07T01:51:09;100176.09;;;1.74;100.00
19210;BME280;9738;51.654;14.238;2022-12-07T01:53:38;100172.81;;;1.71;100.00
19210;BME280;9738;51.654;14.238;2022-12-07T01:56:09;100172.94;;;1.69;100.00
19210;BME280;9738;51.654;14.238;2022-12-07T01:58:36;100177.34;;;1.69;100.00
19210;BME280;9738;51.654;14.238;2022-12-07T02:01:03;100169.56;;;1.67;100.00
19210;BME280;9738;51.654;14.238;2022-12-07T02:03:36;100165.53;;;1.61;100.00
19210;BME280;9738;51.654;14.238;2022-12-07T02:06:05;100168.34;;;1.58;100.00
19210;BME280;9738;51.654;14.238;2022-12-07T02:08:33;100159.31;;;1.62;100.00
19210;BME280;9738;51.654;14.238;2022-12-07T02:11:00;100170.81;;;1.61;100.00
19210;BME280;9738;51.654;14.238;2022-12-07T02:13:30;100161.78;;;1.66;100.00
19210;BME280;9738;51.654;14.238;2022-12-07T02:21:47;100172.34;;;1.51;100.00
19210;BME280;9738;51.654;14.238;2022-12-07T02:24:39;100173.59;;;1.46;100.00
19210;BME280;9738;51.654;14.238;2022-12-07T02:27:37;100177.94;;;1.47;100.00
19210;BME280;9738;51.654;14.238;2022-12-07T02:30:17;100169.38;;;1.43;100.00
19210;BME280;9738;51.654;14.238;2022-12-07T02:35:31;100180.19;;;1.39;100.00
19210;BME280;9738;51.654;14.238;2022-12-07T02:38:25;100177.94;;;1.32;100.00
19210;BME280;9738;51.654;14.238;2022-12-07T02:40:55;100182.19;;;1.35;100.00
19210;BME280;9738;51.654;14.238;2022-12-07T02:43:42;100175.47;;;1.17;100.00
19210;BME280;9738;51.654;14.238;2022-12-07T02:46:17;100180.28;;;1.10;100.00
19210;BME280;9738;51.654;14.238;2022-12-07T02:48:46;100174.06;;;1.11;100.00
19210;BME280;9738;51.654;14.238;2022-12-07T02:51:13;100169.94;;;1.07;100.00
19210;BME280;9738;51.654;14.238;2022-12-07T02:53:41;100163.94;;;1.05;100.00
19210;BME280;9738;51.654;14.238;2022-12-07T02:56:18;100156.63;;;1.10;100.00
19210;BME280;9738;51.654;14.238;2022-12-07T03:02:03;100158.41;;;1.10;100.00
19210;BME280;9738;51.654;14.238;2022-12-07T03:07:14;100153.03;;;1.11;100.00
19210;BME280;9738;51.654;14.238;2022-12-07T03:13:04;100147.13;;;1.07;100.00
19210;BME280;9738;51.654;14.238;2022-12-07T03:15:39;100150.06;;;1.03;100.00
19210;BME280;9738;51.654;14.238;2022-12-07T03:18:09;100144.69;;;1.04;100.00
19210;BME280;9738;51.654;14.238;2022-12-07T03:20:38;100146.59;;;1.02;100.00
19210;BME280;9738;51.654;14.238;2022-12-07T03:23:07;100142.06;;;1.04;100.00
19210;BME280;9738;51.654;14.238;2022-12-07T03:25:41;100144.69;;;1.04;100.00
19210;BME280;9738;51.654;14.238;2022-12-07T03:28:10;100143.00;;;1.03;100.00
19210;BME280;9738;51.654;14.238;2022-12-07T03:31:01;100143.13;;;1.02;100.00
19210;BME280;9738;51.654;14.238;2022-12-07T03:36:11;100135.63;;;0.96;100.00
19210;BME280;9738;51.654;14.238;2022-12-07T03:38:48;100126.22;;;0.92;100.00
19210;BME280;9738;51.654;14.238;2022-12-07T03:41:22;100124.66;;;0.89;100.00
19210;BME280;9738;51.654;14.238;2022-12-07T03:43:49;100127.66;;;0.83;100.00
19210;BME280;9738;51.654;14.238;2022-12-07T03:46:32;100121.09;;;0.76;100.00
19210;BME280;9738;51.654;14.238;2022-12-07T03:49:24;100117.63;;;0.75;100.00
19210;BME280;9738;51.654;14.238;2022-12-07T03:51:56;100110.78;;;0.73;100.00
19210;BME280;9738;51.654;14.238;2022-12-07T03:54:31;100106.47;;;0.72;100.00
19210;BME280;9738;51.654;14.238;2022-12-07T03:56:59;100105.69;;;0.70;100.00
19210;BME280;9738;51.654;14.238;2022-12-07T03:59:28;100100.66;;;0.67;100.00
19210;BME280;9738;51.654;14.238;2022-12-07T04:01:57;100098.75;;;0.69;100.00
19210;BME280;9738;51.654;14.238;2022-12-07T04:04:27;100093.50;;;0.69;100.00
19210;BME280;9738;51.654;14.238;2022-12-07T04:06:53;100097.28;;;0.65;100.00
19210;BME280;9738;51.654;14.238;2022-12-07T04:09:20;100095.03;;;0.59;100.00
19210;BME280;9738;51.654;14.238;2022-12-07T04:11:46;100085.53;;;0.56;100.00
19210;BME280;9738;51.654;14.238;2022-12-07T04:14:12;100078.31;;;0.60;100.00
19210;BME280;9738;51.654;14.238;2022-12-07T04:16:52;100071.56;;;0.56;100.00
19210;BME280;9738;51.654;14.238;2022-12-07T04:19:20;100071.38;;;0.59;100.00
19210;BME280;9738;51.654;14.238;2022-12-07T04:21:46;100069.31;;;0.64;100.00
19210;BME280;9738;51.654;14.238;2022-12-07T04:24:13;100071.78;;;0.52;100.00
19210;BME280;9738;51.654;14.238;2022-12-07T04:26:41;100066.91;;;0.46;100.00
19210;BME280;9738;51.654;14.238;2022-12-07T04:29:08;100063.91;;;0.38;100.00
19210;BME280;9738;51.654;14.238;2022-12-07T04:31:34;100060.06;;;0.30;100.00
19210;BME280;9738;51.654;14.238;2022-12-07T04:34:01;100057.53;;;0.28;100.00
19210;BME280;9738;51.654;14.238;2022-12-07T04:36:27;100051.06;;;0.34;100.00
19210;BME280;9738;51.654;14.238;2022-12-07T04:38:54;100047.22;;;0.39;100.00
19210;BME280;9738;51.654;14.238;2022-12-07T04:41:21;100046.06;;;0.43;100.00
19210;BME280;9738;51.654;14.238;2022-12-07T04:44:03;100044.00;;;0.48;100.00
19210;BME280;9738;51.654;14.238;2022-12-07T04:46:31;100040.25;;;0.52;100.00
19210;BME280;9738;51.654;14.238;2022-12-07T04:48:57;100036.38;;;0.58;100.00
19210;BME280;9738;51.654;14.238;2022-12-07T04:51:25;100032.91;;;0.58;100.00
19210;BME280;9738;51.654;14.238;2022-12-07T04:53:53;100037.78;;;0.64;100.00
19210;BME280;9738;51.654;14.238;2022-12-07T04:56:19;100029.69;;;0.67;100.00
19210;BME280;9738;51.654;14.238;2022-12-07T04:58:46;100024.31;;;0.68;100.00
19210;BME280;9738;51.654;14.238;2022-12-07T05:01:14;100022.53;;;0.69;100.00
19210;BME280;9738;51.654;14.238;2022-12-07T05:03:41;100029.41;;;0.71;100.00
19210;BME280;9738;51.654;14.238;2022-12-07T05:06:07;100019.84;;;0.70;100.00
19210;BME280;9738;51.654;14.238;2022-12-07T05:08:34;100023.94;;;0.74;100.00
19210;BME280;9738;51.654;14.238;2022-12-07T05:11:00;100014.81;;;0.80;100.00
19210;BME280;9738;51.654;14.238;2022-12-07T05:13:26;100016.19;;;0.86;100.00
19210;BME280;9738;51.654;14.238;2022-12-07T05:15:53;100008.03;;;0.90;100.00
19210;BME280;9738;51.654;14.238;2022-12-07T05:18:18;100009.47;;;0.94;100.00
19210;BME280;9738;51.654;14.238;2022-12-07T05:20:45;100011.59;;;0.89;100.00
19210;BME280;9738;51.654;14.238;2022-12-07T05:23:11;100019.47;;;0.89;100.00
19210;BME280;9738;51.654;14.238;2022-12-07T05:25:37;100015.25;;;0.87;100.00
19210;BME280;9738;51.654;14.238;2022-12-07T05:28:04;100007.06;;;0.91;100.00
19210;BME280;9738;51.654;14.238;2022-12-07T05:30:31;100007.91;;;0.92;100.00
19210;BME280;9738;51.654;14.238;2022-12-07T05:32:58;100014.75;;;0.94;100.00
19210;BME280;9738;51.654;14.238;2022-12-07T05:35:23;99995.38;;;0.95;100.00
19210;BME280;9738;51.654;14.238;2022-12-07T05:37:50;99991.63;;;0.99;100.00
19210;BME280;9738;51.654;14.238;2022-12-07T05:40:16;99986.81;;;1.06;100.00
19210;BME280;9738;51.654;14.238;2022-12-07T05:42:42;99985.22;;;1.03;100.00
19210;BME280;9738;51.654;14.238;2022-12-07T05:45:09;99979.44;;;1.11;100.00
19210;BME280;9738;51.654;14.238;2022-12-07T05:47:36;99983.88;;;1.11;100.00
19210;BME280;9738;51.654;14.238;2022-12-07T05:50:03;99977.56;;;1.13;100.00
19210;BME280;9738;51.654;14.238;2022-12-07T05:52:30;99991.34;;;1.17;100.00
19210;BME280;9738;51.654;14.238;2022-12-07T05:54:56;99990.81;;;1.12;100.00
19210;BME280;9738;51.654;14.238;2022-12-07T05:57:21;99994.59;;;1.07;100.00
19210;BME280;9738;51.654;14.238;2022-12-07T05:59:48;99981.13;;;1.12;100.00
19210;BME280;9738;51.654;14.238;2022-12-07T06:02:15;99984.50;;;1.14;100.00
19210;BME280;9738;51.654;14.238;2022-12-07T06:04:43;99980.09;;;1.15;100.00
19210;BME280;9738;51.654;14.238;2022-12-07T06:07:12;99977.25;;;1.18;100.00
19210;BME280;9738;51.654;14.238;2022-12-07T06:09:38;99979.78;;;1.19;100.00
19210;BME280;9738;51.654;14.238;2022-12-07T06:12:05;99977.69;;;1.24;100.00
19210;BME280;9738;51.654;14.238;2022-12-07T06:14:50;99978.41;;;1.26;100.00
19210;BME280;9738;51.654;14.238;2022-12-07T06:17:16;99970.22;;;1.31;100.00
19210;BME280;9738;51.654;14.238;2022-12-07T06:19:42;99976.97;;;1.35;100.00
19210;BME280;9738;51.654;14.238;2022-12-07T06:22:09;99971.72;;;1.35;100.00
19210;BME280;9738;51.654;14.238;2022-12-07T06:24:37;99964.34;;;1.40;100.00
19210;BME280;9738;51.654;14.238;2022-12-07T06:27:03;99964.75;;;1.34;100.00
19210;BME280;9738;51.654;14.238;2022-12-07T06:29:30;99968.84;;;1.38;100.00
19210;BME280;9738;51.654;14.238;2022-12-07T06:31:56;99964.22;;;1.42;100.00
19210;BME280;9738;51.654;14.238;2022-12-07T06:34:22;99962.56;;;1.41;100.00
19210;BME280;9738;51.654;14.238;2022-12-07T06:36:50;99958.31;;;1.38;100.00
19210;BME280;9738;51.654;14.238;2022-12-07T06:39:22;99956.44;;;1.40;100.00
19210;BME280;9738;51.654;14.238;2022-12-07T06:41:49;99956.44;;;1.40;100.00
19210;BME280;9738;51.654;14.238;2022-12-07T06:44:17;99956.75;;;1.23;100.00
19210;BME280;9738;51.654;14.238;2022-12-07T06:46:43;99962.59;;;1.14;100.00
19210;BME280;9738;51.654;14.238;2022-12-07T06:49:10;99966.59;;;1.06;100.00
19210;BME280;9738;51.654;14.238;2022-12-07T06:51:36;99958.56;;;0.95;100.00
19210;BME280;9738;51.654;14.238;2022-12-07T06:54:03;99957.97;;;0.92;100.00
19210;BME280;9738;51.654;14.238;2022-12-07T06:56:30;99953.44;;;0.94;100.00
19210;BME280;9738;51.654;14.238;2022-12-07T06:58:55;99951.84;;;0.91;100.00
19210;BME280;9738;51.654;14.238;2022-12-07T07:01:21;99954.28;;;0.94;100.00
19210;BME280;9738;51.654;14.238;2022-12-07T07:03:47;99954.91;;;0.98;100.00
19210;BME280;9738;51.654;14.238;2022-12-07T07:06:14;99945.44;;;0.95;100.00
19210;BME280;9738;51.654;14.238;2022-12-07T07:08:40;99955.53;;;1.01;100.00
19210;BME280;9738;51.654;14.238;2022-12-07T07:11:08;99960.28;;;0.96;100.00
19210;BME280;9738;51.654;14.238;2022-12-07T07:13:34;99955.88;;;0.97;100.00
19210;BME280;9738;51.654;14.238;2022-12-07T07:16:00;99955.09;;;0.95;100.00
19210;BME280;9738;51.654;14.238;2022-12-07T07:18:27;99955.22;;;0.93;100.00
19210;BME280;9738;51.654;14.238;2022-12-07T07:20:53;99954.38;;;0.93;100.00
19210;BME280;9738;51.654;14.238;2022-12-07T07:23:20;99953.31;;;0.95;100.00
19210;BME280;9738;51.654;14.238;2022-12-07T07:25:47;99955.75;;;0.98;100.00
19210;BME280;9738;51.654;14.238;2022-12-07T07:28:13;99950.09;;;1.04;100.00
19210;BME280;9738;51.654;14.238;2022-12-07T07:30:39;99952.91;;;1.01;100.00
19210;BME280;9738;51.654;14.238;2022-12-07T07:33:06;99949.88;;;1.07;100.00
19210;BME280;9738;51.654;14.238;2022-12-07T07:35:33;99947.25;;;1.07;100.00
19210;BME280;9738;51.654;14.238;2022-12-07T07:38:00;99952.72;;;1.04;100.00
19210;BME280;9738;51.654;14.238;2022-12-07T07:40:27;99946.41;;;1.07;100.00
19210;BME280;9738;51.654;14.238;2022-12-07T07:42:54;99937.25;;;1.13;100.00
19210;BME280;9738;51.654;14.238;2022-12-07T07:45:21;99940.53;;;1.16;100.00
19210;BME280;9738;51.654;14.238;2022-12-07T07:47:48;99935.41;;;1.15;100.00
19210;BME280;9738;51.654;14.238;2022-12-07T07:50:14;99933.50;;;1.17;100.00
19210;BME280;9738;51.654;14.238;2022-12-07T07:52:41;99935.91;;;1.20;100.00
19210;BME280;9738;51.654;14.238;2022-12-07T07:55:08;99936.66;;;1.22;100.00
19210;BME280;9738;51.654;14.238;2022-12-07T07:57:35;99937.38;;;1.24;100.00
19210;BME280;9738;51.654;14.238;2022-12-07T08:00:03;99938.03;;;1.27;100.00
19210;BME280;9738;51.654;14.238;2022-12-07T08:02:30;99938.88;;;1.28;100.00
19210;BME280;9738;51.654;14.238;2022-12-07T08:04:56;99931.91;;;1.27;100.00
19210;BME280;9738;51.654;14.238;2022-12-07T08:07:21;99939.59;;;1.30;100.00
19210;BME280;9738;51.654;14.238;2022-12-07T08:09:48;99943.72;;;1.34;100.00
19210;BME280;9738;51.654;14.238;2022-12-07T08:12:14;99942.44;;;1.40;100.00
19210;BME280;9738;51.654;14.238;2022-12-07T08:14:39;99943.59;;;1.35;100.00
19210;BME280;9738;51.654;14.238;2022-12-07T08:17:06;99943.78;;;1.32;100.00
19210;BME280;9738;51.654;14.238;2022-12-07T08:19:31;99943.50;;;1.37;100.00
19210;BME280;9738;51.654;14.238;2022-12-07T08:21:58;99944.34;;;1.38;100.00
19210;BME280;9738;51.654;14.238;2022-12-07T08:24:24;99940.66;;;1.40;100.00
19210;BME280;9738;51.654;14.238;2022-12-07T08:26:50;99937.91;;;1.42;100.00
19210;BME280;9738;51.654;14.238;2022-12-07T08:29:16;99938.13;;;1.51;100.00
19210;BME280;9738;51.654;14.238;2022-12-07T08:31:43;99937.81;;;1.56;100.00
19210;BME280;9738;51.654;14.238;2022-12-07T08:34:10;99942.22;;;1.55;100.00
19210;BME280;9738;51.654;14.238;2022-12-07T08:36:36;99948.09;;;1.59;100.00
19210;BME280;9738;51.654;14.238;2022-12-07T08:39:03;99940.13;;;1.60;100.00
19210;BME280;9738;51.654;14.238;2022-12-07T08:41:29;99935.47;;;1.64;100.00
19210;BME280;9738;51.654;14.238;2022-12-07T08:43:55;99944.13;;;1.66;100.00
19210;BME280;9738;51.654;14.238;2022-12-07T08:46:28;99938.44;;;1.72;100.00
19210;BME280;9738;51.654;14.238;2022-12-07T08:49:02;99940.94;;;1.74;100.00
19210;BME280;9738;51.654;14.238;2022-12-07T08:51:29;99942.63;;;1.75;100.00
19210;BME280;9738;51.654;14.238;2022-12-07T08:53:58;99934.31;;;1.81;100.00
19210;BME280;9738;51.654;14.238;2022-12-07T08:56:26;99936.28;;;1.90;100.00
19210;BME280;9738;51.654;14.238;2022-12-07T08:58:52;99942.06;;;1.95;100.00
19210;BME280;9738;51.654;14.238;2022-12-07T09:01:18;99942.59;;;2.00;100.00
19210;BME280;9738;51.654;14.238;2022-12-07T09:03:44;99940.69;;;2.02;100.00
19210;BME280;9738;51.654;14.238;2022-12-07T09:06:10;99941.72;;;2.12;100.00
19210;BME280;9738;51.654;14.238;2022-12-07T09:08:39;99940.88;;;2.12;100.00
19210;BME280;9738;51.654;14.238;2022-12-07T09:11:06;99941.41;;;2.17;100.00
19210;BME280;9738;51.654;14.238;2022-12-07T09:13:32;99940.31;;;2.20;100.00
19210;BME280;9738;51.654;14.238;2022-12-07T09:15:58;99942.56;;;2.13;100.00
19210;BME280;9738;51.654;14.238;2022-12-07T09:18:23;99934.41;;;2.16;100.00
19210;BME280;9738;51.654;14.238;2022-12-07T09:20:50;99933.88;;;2.24;100.00
19210;BME280;9738;51.654;14.238;2022-12-07T09:23:16;99936.91;;;2.30;100.00
19210;BME280;9738;51.654;14.238;2022-12-07T09:25:42;99936.69;;;2.33;100.00
19210;BME280;9738;51.654;14.238;2022-12-07T09:28:09;99939.31;;;2.33;100.00
19210;BME280;9738;51.654;14.238;2022-12-07T09:30:35;99934.38;;;2.29;100.00
19210;BME280;9738;51.654;14.238;2022-12-07T09:33:01;99937.06;;;2.40;100.00
19210;BME280;9738;51.654;14.238;2022-12-07T09:35:27;99931.69;;;2.41;100.00
19210;BME280;9738;51.654;14.238;2022-12-07T09:37:53;99937.81;;;2.42;100.00
19210;BME280;9738;51.654;14.238;2022-12-07T09:40:20;99938.53;;;2.44;100.00
19210;BME280;9738;51.654;14.238;2022-12-07T09:42:51;99936.03;;;2.42;100.00
19210;BME280;9738;51.654;14.238;2022-12-07T09:45:27;99929.44;;;2.48;100.00
19210;BME280;9738;51.654;14.238;2022-12-07T09:47:57;99932.94;;;2.49;100.00
19210;BME280;9738;51.654;14.238;2022-12-07T09:50:25;99929.34;;;2.50;100.00
19210;BME280;9738;51.654;14.238;2022-12-07T09:52:52;99921.97;;;2.55;100.00
19210;BME280;9738;51.654;14.238;2022-12-07T09:55:24;99929.75;;;2.56;100.00
19210;BME280;9738;51.654;14.238;2022-12-07T09:57:52;99927.81;;;2.58;100.00
19210;BME280;9738;51.654;14.238;2022-12-07T10:00:20;99926.66;;;2.62;100.00
19210;BME280;9738;51.654;14.238;2022-12-07T10:03:01;99928.00;;;2.68;100.00
19210;BME280;9738;51.654;14.238;2022-12-07T10:05:31;99926.72;;;2.74;100.00
19210;BME280;9738;51.654;14.238;2022-12-07T10:07:58;99931.75;;;2.77;100.00
19210;BME280;9738;51.654;14.238;2022-12-07T10:10:27;99930.78;;;2.78;100.00
19210;BME280;9738;51.654;14.238;2022-12-07T10:13:01;99931.75;;;2.77;100.00
19210;BME280;9738;51.654;14.238;2022-12-07T10:15:51;99926.13;;;2.81;100.00
19210;BME280;9738;51.654;14.238;2022-12-07T10:18:36;99927.47;;;2.87;100.00
19210;BME280;9738;51.654;14.238;2022-12-07T10:21:12;99931.03;;;2.86;100.00
19210;BME280;9738;51.654;14.238;2022-12-07T10:23:58;99929.38;;;2.85;100.00
19210;BME280;9738;51.654;14.238;2022-12-07T10:29:20;99927.94;;;2.92;100.00
19210;BME280;9738;51.654;14.238;2022-12-07T10:31:55;99922.19;;;2.87;100.00
19210;BME280;9738;51.654;14.238;2022-12-07T10:34:24;99922.91;;;2.89;100.00
19210;BME280;9738;51.654;14.238;2022-12-07T10:36:52;99924.84;;;2.98;100.00
19210;BME280;9738;51.654;14.238;2022-12-07T10:39:21;99926.31;;;3.02;100.00
19210;BME280;9738;51.654;14.238;2022-12-07T10:42:01;99914.78;;;3.03;100.00
19210;BME280;9738;51.654;14.238;2022-12-07T10:44:32;99915.91;;;3.12;100.00
19210;BME280;9738;51.654;14.238;2022-12-07T10:47:11;99919.16;;;3.15;100.00
19210;BME280;9738;51.654;14.238;2022-12-07T10:55:10;99919.88;;;3.29;100.00
19210;BME280;9738;51.654;14.238;2022-12-07T11:00:39;99913.19;;;3.36;100.00
19210;BME280;9738;51.654;14.238;2022-12-07T11:03:27;99916.41;;;3.28;100.00
19210;BME280;9738;51.654;14.238;2022-12-07T11:06:14;99916.06;;;3.33;100.00
19210;BME280;9738;51.654;14.238;2022-12-07T11:11:34;99923.63;;;3.26;100.00
19210;BME280;9738;51.654;14.238;2022-12-07T11:14:08;99913.41;;;3.21;100.00
19210;BME280;9738;51.654;14.238;2022-12-07T11:16:47;99908.63;;;3.27;100.00
19210;BME280;9738;51.654;14.238;2022-12-07T11:22:23;99911.75;;;3.43;100.00
19210;BME280;9738;51.654;14.238;2022-12-07T11:25:14;99919.19;;;3.38;100.00
19210;BME280;9738;51.654;14.238;2022-12-07T11:28:11;99915.47;;;3.40;100.00
19210;BME280;9738;51.654;14.238;2022-12-07T11:30:48;99920.13;;;3.37;100.00
19210;BME280;9738;51.654;14.238;2022-12-07T11:33:37;99918.72;;;3.33;100.00
19210;BME280;9738;51.654;14.238;2022-12-07T11:36:38;99920.59;;;3.31;100.00
19210;BME280;9738;51.654;14.238;2022-12-07T11:41:50;99915.09;;;3.34;100.00
19210;BME280;9738;51.654;14.238;2022-12-07T11:44:50;99920.13;;;3.37;100.00
19210;BME280;9738;51.654;14.238;2022-12-07T11:50:17;99917.97;;;3.42;100.00
19210;BME280;9738;51.654;14.238;2022-12-07T11:55:56;99917.41;;;3.38;100.00
19210;BME280;9738;51.654;14.238;2022-12-07T12:03:45;99914.66;;;3.51;100.00
19210;BME280;9738;51.654;14.238;2022-12-07T12:06:12;99908.41;;;3.52;100.00
19210;BME280;9738;51.654;14.238;2022-12-07T12:08:42;99913.91;;;3.49;100.00
19210;BME280;9738;51.654;14.238;2022-12-07T12:14:14;99915.84;;;3.58;100.00
19210;BME280;9738;51.654;14.238;2022-12-07T12:17:20;99905.06;;;3.50;100.00
19210;BME280;9738;51.654;14.238;2022-12-07T12:22:37;99909.00;;;3.56;100.00
19210;BME280;9738;51.654;14.238;2022-12-07T12:25:06;99903.84;;;3.54;100.00
19210;BME280;9738;51.654;14.238;2022-12-07T12:27:35;99903.13;;;3.52;100.00
19210;BME280;9738;51.654;14.238;2022-12-07T12:30:05;99910.69;;;3.57;100.00
19210;BME280;9738;51.654;14.238;2022-12-07T12:32:42;99907.44;;;3.64;100.00
19210;BME280;9738;51.654;14.238;2022-12-07T12:35:31;99906.13;;;3.59;100.00
19210;BME280;9738;51.654;14.238;2022-12-07T12:40:53;99909.00;;;3.56;100.00
19210;BME280;9738;51.654;14.238;2022-12-07T12:43:50;99899.41;;;3.66;100.00
19210;BME280;9738;51.654;14.238;2022-12-07T12:46:36;99907.06;;;3.69;100.00
19210;BME280;9738;51.654;14.238;2022-12-07T12:51:57;99904.19;;;3.72;100.00
19210;BME280;9738;51.654;14.238;2022-12-07T12:54:30;99900.59;;;3.73;100.00
19210;BME280;9738;51.654;14.238;2022-12-07T12:59:32;99903.38;;;3.71;100.00
19210;BME280;9738;51.654;14.238;2022-12-07T13:02:24;99897.81;;;3.74;100.00
19210;BME280;9738;51.654;14.238;2022-12-07T13:13:01;99897.25;;;3.60;100.00
19210;BME280;9738;51.654;14.238;2022-12-07T13:18:35;99903.13;;;3.63;100.00
19210;BME280;9738;51.654;14.238;2022-12-07T13:20:58;99893.28;;;3.65;100.00
19210;BME280;9738;51.654;14.238;2022-12-07T13:26:21;99892.66;;;3.73;100.00
19210;BME280;9738;51.654;14.238;2022-12-07T13:28:50;99895.56;;;3.70;100.00
19210;BME280;9738;51.654;14.238;2022-12-07T13:33:55;99897.59;;;3.66;100.00
19210;BME280;9738;51.654;14.238;2022-12-07T13:36:24;99897.72;;;3.65;100.00
19210;BME280;9738;51.654;14.238;2022-12-07T13:38:54;99892.56;;;3.63;100.00
19210;BME280;9738;51.654;14.238;2022-12-07T13:41:23;99897.38;;;3.58;100.00
19210;BME280;9738;51.654;14.238;2022-12-07T13:43:59;99888.69;;;3.56;100.00
19210;BME280;9738;51.654;14.238;2022-12-07T13:46:35;99893.06;;;3.57;100.00
19210;BME280;9738;51.654;14.238;2022-12-07T13:49:17;99891.00;;;3.61;100.00
19210;BME280;9738;51.654;14.238;2022-12-07T13:51:44;99888.13;;;3.52;100.00
19210;BME280;9738;51.654;14.238;2022-12-07T13:54:12;99885.59;;;3.51;100.00
19210;BME280;9738;51.654;14.238;2022-12-07T13:56:38;99887.88;;;3.44;100.00
19210;BME280;9738;51.654;14.238;2022-12-07T13:59:16;99888.72;;;3.45;100.00
19210;BME280;9738;51.654;14.238;2022-12-07T14:01:44;99889.19;;;3.39;100.00
19210;BME280;9738;51.654;14.238;2022-12-07T14:04:27;99892.06;;;3.36;100.00
19210;BME280;9738;51.654;14.238;2022-12-07T14:06:54;99892.91;;;3.36;100.00
19210;BME280;9738;51.654;14.238;2022-12-07T14:09:23;99891.34;;;3.34;100.00
19210;BME280;9738;51.654;14.238;2022-12-07T14:11:51;99900.34;;;3.31;100.00
19210;BME280;9738;51.654;14.238;2022-12-07T14:14:21;99894.94;;;3.33;100.00
19210;BME280;9738;51.654;14.238;2022-12-07T14:16:59;99892.31;;;3.33;100.00
19210;BME280;9738;51.654;14.238;2022-12-07T14:24:44;99888.84;;;3.32;100.00
19210;BME280;9738;51.654;14.238;2022-12-07T14:27:23;99888.72;;;3.34;100.00
19210;BME280;9738;51.654;14.238;2022-12-07T14:29:51;99883.44;;;3.34;100.00
19210;BME280;9738;51.654;14.238;2022-12-07T14:32:26;99880.78;;;3.34;100.00
19210;BME280;9738;51.654;14.238;2022-12-07T14:35:03;99885.81;;;3.37;100.00
19210;BME280;9738;51.654;14.238;2022-12-07T14:37:35;99891.00;;;3.38;100.00
19210;BME280;9738;51.654;14.238;2022-12-07T14:40:01;99888.47;;;3.37;100.00